Ankara/Etimesgut, Turkey
Current Conditions -  °F | °C
As of 3:50 PM on Monday 20 Oct 2014 (Local Time) from LTAC Reporting Station
Clear Clear  
Wind Chill: 52°   Ceiling: Unl
Heat Index: 52°   Visibility: 6mi
Dew Point: 25°   Wind: 5mph
Humidity: 35%   Direction: 40°NE
Pressure: 30.12"   Gusts: NA
Location:  39.97°N, 32.68°E
Report Text: LTAC 201250Z 04004KT 300V070 CAVOK 11/M04 Q1020 NOSIG
Loading
Personal Weather Stations






























Interactive Weather Map
Tropical Storm Tracking
New forecast layout! Learn more

10-Day Weather Forecast

Advertisements
Track Severe Weather on mobile